createdAt,value
2016-06-07T00:00:05.335Z,0
2016-06-07T00:01:05.322Z,0
2016-06-07T00:02:05.341Z,0
2016-06-07T00:03:05.328Z,0
2016-06-07T00:04:05.329Z,0
2016-06-07T00:05:05.349Z,0
2016-06-07T00:06:05.491Z,0
2016-06-07T00:07:05.338Z,0
2016-06-07T00:08:05.340Z,0
2016-06-07T00:09:05.343Z,0
2016-06-07T00:10:05.190Z,0
2016-06-07T00:11:05.349Z,0
2016-06-07T00:12:05.336Z,0
2016-06-07T00:13:05.635Z,0
2016-06-07T00:14:05.340Z,0
2016-06-07T00:15:05.343Z,0
2016-06-07T00:16:05.346Z,0
2016-06-07T00:17:05.349Z,0
2016-06-07T00:18:05.351Z,0
2016-06-07T00:19:05.354Z,0
2016-06-07T00:20:05.342Z,0
2016-06-07T00:21:05.751Z,0
2016-06-07T00:22:05.348Z,0
2016-06-07T00:23:05.209Z,0
2016-06-07T00:24:05.352Z,0
2016-06-07T00:25:05.355Z,0
2016-06-07T00:26:05.358Z,0
2016-06-07T00:27:05.360Z,0
2016-06-07T00:28:05.364Z,0
2016-06-07T00:29:05.367Z,0
2016-06-07T00:30:05.369Z,0
2016-06-07T00:31:05.371Z,0
2016-06-07T00:32:05.374Z,0
2016-06-07T00:33:05.377Z,0
2016-06-07T00:34:05.380Z,0
2016-06-07T00:35:05.366Z,0
2016-06-07T00:36:05.369Z,0
2016-06-07T00:37:05.371Z,0
2016-06-07T00:38:05.219Z,0
2016-06-07T00:39:05.377Z,0
2016-06-07T00:40:05.223Z,0
2016-06-07T00:41:05.382Z,0
2016-06-07T00:42:05.385Z,0
2016-06-07T00:43:05.388Z,0
2016-06-07T00:44:05.375Z,0
2016-06-07T00:45:05.393Z,0
2016-06-07T00:46:05.381Z,0
2016-06-07T00:47:05.243Z,0
2016-06-07T00:48:05.401Z,0
2016-06-07T00:49:05.389Z,0
2016-06-07T00:50:05.391Z,0
2016-06-07T00:51:06.612Z,0
2016-06-07T00:52:05.397Z,0
2016-06-07T00:53:05.400Z,0
2016-06-07T00:54:05.386Z,0
2016-06-07T00:55:05.405Z,0
2016-06-07T00:56:05.392Z,0
2016-06-07T00:57:05.395Z,0
2016-06-07T00:58:05.397Z,0
2016-06-07T00:59:05.400Z,0
2016-06-07T01:00:05.403Z,0
2016-06-07T01:01:05.405Z,0
2016-06-07T01:02:05.408Z,0
2016-06-07T01:03:05.427Z,0
2016-06-07T01:04:05.413Z,0
2016-06-07T01:05:05.260Z,0
2016-06-07T01:06:06.184Z,0
2016-06-07T01:07:06.046Z,0
2016-06-07T01:08:05.424Z,0
2016-06-07T01:09:05.411Z,0
2016-06-07T01:10:05.414Z,0
2016-06-07T01:11:05.416Z,0
2016-06-07T01:12:05.418Z,0
2016-06-07T01:13:05.421Z,0
2016-06-07T01:14:05.424Z,0
2016-06-07T01:15:05.427Z,0
2016-06-07T01:16:05.429Z,0
2016-06-07T01:17:05.432Z,0
2016-06-07T01:18:05.420Z,0
2016-06-07T01:19:05.125Z,0
2016-06-07T01:20:05.425Z,0
2016-06-07T01:21:05.131Z,0
2016-06-07T01:22:05.649Z,0
2016-06-07T01:23:05.448Z,0
2016-06-07T01:24:05.436Z,0
2016-06-07T01:25:05.438Z,0
2016-06-07T01:26:05.426Z,0
2016-06-07T01:27:05.444Z,0
2016-06-07T01:28:05.447Z,0
2016-06-07T01:29:05.449Z,0
2016-06-07T01:30:05.436Z,0
2016-06-07T01:31:05.283Z,0
2016-06-07T01:32:05.442Z,0
2016-06-07T01:33:05.444Z,0
2016-06-07T01:34:05.447Z,0
2016-06-07T01:35:05.449Z,0
2016-06-07T01:36:05.469Z,0
2016-06-07T01:37:05.361Z,0
2016-06-07T01:38:05.442Z,0
2016-06-07T01:39:05.460Z,0
2016-06-07T01:40:05.447Z,0
2016-06-07T01:41:05.450Z,0
2016-06-07T01:42:05.453Z,0
2016-06-07T01:43:05.455Z,0
2016-06-07T01:44:05.442Z,0
2016-06-07T01:45:05.445Z,0
2016-06-07T01:46:05.463Z,0
2016-06-07T01:47:05.450Z,0
2016-06-07T01:48:05.457Z,0
2016-06-07T01:49:05.475Z,0
2016-06-07T01:50:05.492Z,0
2016-06-07T01:51:06.354Z,0
2016-06-07T01:52:06.167Z,0
2016-06-07T01:53:05.558Z,0
2016-06-07T01:54:05.551Z,0
2016-06-07T01:55:05.559Z,0
2016-06-07T01:56:05.412Z,0
2016-06-07T01:57:05.575Z,0
2016-06-07T01:58:05.567Z,0
2016-06-07T01:59:05.571Z,0
2016-06-07T02:00:05.591Z,0
2016-06-07T02:01:05.580Z,0
2016-06-07T02:02:05.585Z,0
2016-06-07T02:03:05.589Z,0
2016-06-07T02:04:05.593Z,0
2016-06-07T02:05:05.613Z,0
2016-06-07T02:06:05.553Z,0
2016-06-07T02:07:05.447Z,0
2016-06-07T02:08:05.592Z,0
2016-06-07T02:09:05.595Z,0
2016-06-07T02:10:05.598Z,0
2016-06-07T02:11:05.443Z,0
2016-06-07T02:12:05.588Z,0
2016-06-07T02:13:05.747Z,0
2016-06-07T02:14:05.610Z,0
2016-06-07T02:15:05.612Z,0
2016-06-07T02:16:05.599Z,0
2016-06-07T02:17:05.601Z,0
2016-06-07T02:18:05.605Z,0
2016-06-07T02:19:05.607Z,0
2016-06-07T02:20:05.610Z,0
2016-06-07T02:21:06.003Z,0
2016-06-07T02:22:06.865Z,0
2016-06-07T02:23:05.602Z,0
2016-06-07T02:24:05.605Z,0
2016-06-07T02:25:05.607Z,0
2016-06-07T02:26:05.610Z,0
2016-06-07T02:27:05.613Z,0
2016-06-07T02:28:05.615Z,0
2016-06-07T02:29:05.462Z,0
2016-06-07T02:30:05.620Z,0
2016-06-07T02:31:05.623Z,0
2016-06-07T02:32:05.626Z,0
2016-06-07T02:33:05.614Z,0
2016-06-07T02:34:05.460Z,0
2016-06-07T02:35:05.619Z,0
2016-06-07T02:36:07.059Z,0
2016-06-07T02:37:06.702Z,0
2016-06-07T02:38:05.627Z,0
2016-06-07T02:39:05.489Z,0
2016-06-07T02:40:05.633Z,0
2016-06-07T02:41:05.635Z,0
2016-06-07T02:42:05.669Z,0
2016-06-07T02:43:05.641Z,0
2016-06-07T02:44:05.627Z,0
2016-06-07T02:45:05.630Z,0
2016-06-07T02:46:05.633Z,0
2016-06-07T02:47:05.635Z,4
2016-06-07T02:48:05.638Z,4
2016-06-07T02:49:05.640Z,0
2016-06-07T02:50:05.644Z,0
2016-06-07T02:51:06.178Z,4
2016-06-07T02:52:05.507Z,0
2016-06-07T02:53:05.636Z,4
2016-06-07T02:54:05.638Z,4
2016-06-07T02:55:05.641Z,4
2016-06-07T02:56:05.644Z,8
2016-06-07T02:57:05.662Z,4
2016-06-07T02:58:05.649Z,4
2016-06-07T02:59:05.652Z,4
2016-06-07T03:00:05.499Z,12
2016-06-07T03:01:05.657Z,12
2016-06-07T03:02:05.660Z,12
2016-06-07T03:03:05.647Z,12
2016-06-07T03:04:05.650Z,16
2016-06-07T03:05:05.653Z,16
2016-06-07T03:06:06.545Z,20
2016-06-07T03:07:05.705Z,24
2016-06-07T03:08:05.661Z,28
2016-06-07T03:09:05.648Z,32
2016-06-07T03:10:05.666Z,32
2016-06-07T03:11:05.497Z,40
2016-06-07T03:12:05.655Z,40
2016-06-07T03:13:05.658Z,48
2016-06-07T03:14:05.661Z,52
2016-06-07T03:15:05.663Z,60
2016-06-07T03:16:05.666Z,64
2016-06-07T03:17:05.669Z,72
2016-06-07T03:18:05.657Z,84
2016-06-07T03:19:05.660Z,88
2016-06-07T03:20:05.662Z,100
2016-06-07T03:21:05.680Z,108
2016-06-07T03:22:05.777Z,124
2016-06-07T03:23:05.685Z,132
2016-06-07T03:24:05.657Z,148
2016-06-07T03:25:05.676Z,160
2016-06-07T03:26:05.679Z,180
2016-06-07T03:27:05.681Z,196
2016-06-07T03:28:05.684Z,216
2016-06-07T03:29:05.686Z,236
2016-06-07T03:30:05.689Z,264
2016-06-07T03:31:05.676Z,284
2016-06-07T03:32:05.679Z,308
2016-06-07T03:33:05.681Z,336
2016-06-07T03:34:05.668Z,360
2016-06-07T03:35:05.686Z,392
2016-06-07T03:36:06.189Z,424
2016-06-07T03:37:06.504Z,460
2016-06-07T03:38:05.678Z,500
2016-06-07T03:39:05.697Z,544
2016-06-07T03:40:05.684Z,588
2016-06-07T03:41:05.687Z,628
2016-06-07T03:42:05.689Z,664
2016-06-07T03:43:05.708Z,704
2016-06-07T03:44:05.695Z,744
2016-06-07T03:45:05.682Z,784
2016-06-07T03:46:05.685Z,828
2016-06-07T03:47:05.688Z,868
2016-06-07T03:48:05.705Z,912
2016-06-07T03:49:05.693Z,956
2016-06-07T03:50:05.696Z,1004
2016-06-07T03:51:05.714Z,1080
2016-06-07T03:52:06.388Z,1172
2016-06-07T03:53:05.704Z,1264
2016-06-07T03:54:05.707Z,1320
2016-06-07T03:55:05.740Z,1384
2016-06-07T03:56:05.712Z,1468
2016-06-07T03:57:05.698Z,1564
2016-06-07T03:58:05.701Z,1644
2016-06-07T03:59:05.688Z,1720
2016-06-07T04:00:05.691Z,1804
2016-06-07T04:01:05.694Z,1892
2016-06-07T04:02:05.696Z,1988
2016-06-07T04:03:05.559Z,2108
2016-06-07T04:04:05.701Z,2328
2016-06-07T04:05:05.704Z,2740
2016-06-07T04:06:05.723Z,3124
2016-06-07T04:07:05.929Z,3380
2016-06-07T04:08:05.572Z,3468
2016-06-07T04:09:05.731Z,3568
2016-06-07T04:10:05.718Z,3808
2016-06-07T04:11:05.705Z,4008
2016-06-07T04:12:05.723Z,4080
2016-06-07T04:13:05.820Z,4096
2016-06-07T04:14:05.714Z,4304
2016-06-07T04:15:05.716Z,4556
2016-06-07T04:16:05.733Z,4696
2016-06-07T04:17:05.722Z,4696
2016-06-07T04:18:05.725Z,4920
2016-06-07T04:19:05.727Z,5172
2016-06-07T04:20:05.729Z,5328
2016-06-07T04:21:05.732Z,5492
2016-06-07T04:22:06.250Z,5644
2016-06-07T04:23:05.738Z,5776
2016-06-07T04:24:05.741Z,6080
2016-06-07T04:25:05.743Z,6208
2016-06-07T04:26:05.745Z,6216
2016-06-07T04:27:05.749Z,6384
2016-06-07T04:28:05.751Z,6760
2016-06-07T04:29:05.754Z,6952
2016-06-07T04:30:05.756Z,6924
2016-06-07T04:31:05.760Z,7368
2016-06-07T04:32:05.762Z,7840
2016-06-07T04:33:05.764Z,7996
2016-06-07T04:34:05.768Z,8212
2016-06-07T04:35:05.769Z,8300
2016-06-07T04:36:05.788Z,8404
2016-06-07T04:37:05.665Z,8936
2016-06-07T04:38:06.668Z,9096
2016-06-07T04:39:05.780Z,9156
2016-06-07T04:40:05.784Z,9400
2016-06-07T04:41:05.786Z,9364
2016-06-07T04:42:05.633Z,9532
2016-06-07T04:43:05.806Z,9756
2016-06-07T04:44:05.810Z,9904
2016-06-07T04:45:05.811Z,10172
2016-06-07T04:46:05.814Z,11072
2016-06-07T04:47:05.802Z,11224
2016-06-07T04:48:05.805Z,11744
2016-06-07T04:49:05.823Z,11732
2016-06-07T04:50:05.825Z,11944
2016-06-07T04:51:05.828Z,12000
2016-06-07T04:52:05.987Z,12004
2016-06-07T04:53:05.677Z,12176
2016-06-07T04:54:05.836Z,12324
2016-06-07T04:55:05.839Z,12540
2016-06-07T04:56:05.841Z,13148
2016-06-07T04:57:05.844Z,14176
2016-06-07T04:58:05.847Z,14296
2016-06-07T04:59:05.866Z,14444
2016-06-07T05:00:05.852Z,14620
2016-06-07T05:01:05.871Z,14092
2016-06-07T05:02:05.889Z,10472
2016-06-07T05:03:05.860Z,7416
2016-06-07T05:04:05.879Z,8804
2016-06-07T05:05:05.882Z,10912
2016-06-07T05:06:05.885Z,9004
2016-06-07T05:07:06.340Z,9508
2016-06-07T05:08:07.609Z,11792
2016-06-07T05:09:05.908Z,18912
2016-06-07T05:10:05.911Z,16640
2016-06-07T05:11:05.914Z,11816
2016-06-07T05:12:05.916Z,10824
2016-06-07T05:13:05.919Z,12060
2016-06-07T05:14:05.922Z,14896
2016-06-07T05:15:05.925Z,18048
2016-06-07T05:16:05.927Z,18944
2016-06-07T05:17:06.335Z,22528
2016-06-07T05:18:05.948Z,22112
2016-06-07T05:19:05.950Z,20960
2016-06-07T05:20:05.969Z,17152
2016-06-07T05:21:05.955Z,19136
2016-06-07T05:22:06.459Z,20832
2016-06-07T05:23:05.977Z,23072
2016-06-07T05:24:05.964Z,22752
2016-06-07T05:25:05.982Z,20800
2016-06-07T05:26:05.829Z,19680
2016-06-07T05:27:06.004Z,20480
2016-06-07T05:28:06.007Z,24448
2016-06-07T05:29:06.009Z,25152
2016-06-07T05:30:06.026Z,25984
2016-06-07T05:31:06.029Z,27072
2016-06-07T05:32:06.017Z,27392
2016-06-07T05:33:06.035Z,26656
2016-06-07T05:34:06.038Z,27008
2016-06-07T05:35:05.885Z,27840
2016-06-07T05:36:06.043Z,28576
2016-06-07T05:37:05.873Z,28544
2016-06-07T05:38:06.049Z,29120
2016-06-07T05:39:06.067Z,28640
2016-06-07T05:40:06.179Z,28704
2016-06-07T05:41:06.087Z,28544
2016-06-07T05:42:06.715Z,29568
2016-06-07T05:43:06.093Z,30720
2016-06-07T05:44:05.940Z,29984
2016-06-07T05:45:06.114Z,30880
2016-06-07T05:46:06.117Z,30944
2016-06-07T05:47:06.119Z,29856
2016-06-07T05:48:06.122Z,31616
2016-06-07T05:49:06.125Z,31776
2016-06-07T05:50:06.143Z,32064
2016-06-07T05:51:06.146Z,32928
2016-06-07T05:52:06.992Z,33280
2016-06-07T05:53:06.152Z,32864
2016-06-07T05:54:06.170Z,33184
2016-06-07T05:55:06.188Z,33024
2016-06-07T05:56:06.191Z,34400
2016-06-07T05:57:06.210Z,33376
2016-06-07T05:58:06.213Z,33600
2016-06-07T05:59:06.215Z,34752
2016-06-07T06:00:06.232Z,34272
2016-06-07T06:01:06.236Z,34976
2016-06-07T06:02:06.223Z,34848
2016-06-07T06:03:06.241Z,36032
2016-06-07T06:04:06.243Z,35456
2016-06-07T06:05:06.293Z,35520
2016-06-07T06:06:06.265Z,35776
2016-06-07T06:07:06.268Z,35680
2016-06-07T06:08:07.379Z,36896
2016-06-07T06:09:06.288Z,38080
2016-06-07T06:10:06.307Z,39520
2016-06-07T06:11:06.309Z,40928
2016-06-07T06:12:06.312Z,40064
2016-06-07T06:13:06.471Z,39648
2016-06-07T06:14:06.333Z,39840
2016-06-07T06:15:06.351Z,40384
2016-06-07T06:16:06.353Z,40384
2016-06-07T06:17:06.389Z,26304
2016-06-07T06:18:06.375Z,29920
2016-06-07T06:19:06.378Z,34144
2016-06-07T06:20:06.396Z,36064
2016-06-07T06:21:06.399Z,36256
2016-06-07T06:22:06.495Z,37184
2016-06-07T06:23:07.795Z,37248
2016-06-07T06:24:06.295Z,33056
2016-06-07T06:25:06.125Z,28864
2016-06-07T06:26:06.441Z,27904
2016-06-07T06:27:06.444Z,28832
2016-06-07T06:28:06.305Z,27424
2016-06-07T06:29:06.480Z,24800
2016-06-07T06:30:06.466Z,17260
2016-06-07T06:31:06.345Z,15416
2016-06-07T06:32:06.504Z,14752
2016-06-07T06:33:06.506Z,14880
2016-06-07T06:34:06.525Z,15604
2016-06-07T06:35:06.527Z,16136
2016-06-07T06:36:06.545Z,17192
2016-06-07T06:37:06.548Z,19232
2016-06-07T06:38:06.426Z,21280
2016-06-07T06:39:06.570Z,23424
2016-06-07T06:40:06.587Z,40160
2016-06-07T06:41:06.590Z,30240
2016-06-07T06:42:06.623Z,25024
2016-06-07T06:43:06.612Z,22176
2016-06-07T06:44:06.599Z,16888
2016-06-07T06:45:06.632Z,16652
2016-06-07T06:46:06.634Z,17956
2016-06-07T06:47:06.638Z,18464
2016-06-07T06:48:06.656Z,19392
2016-06-07T06:49:06.658Z,19488
2016-06-07T06:50:06.678Z,19136
2016-06-07T06:51:06.680Z,18560
2016-06-07T06:52:08.513Z,17864
2016-06-07T06:53:07.075Z,17932
2016-06-07T06:54:06.704Z,17020
2016-06-07T06:55:06.550Z,18432
2016-06-07T06:56:06.724Z,19872
2016-06-07T06:57:06.728Z,23232
2016-06-07T06:58:06.730Z,28608
2016-06-07T06:59:06.733Z,30080
2016-06-07T07:00:06.766Z,31936
2016-06-07T07:01:06.753Z,39232
2016-06-07T07:02:06.772Z,40544
2016-06-07T07:03:06.650Z,34496
2016-06-07T07:04:06.777Z,32608
2016-06-07T07:05:06.796Z,36736
2016-06-07T07:06:06.799Z,44128
2016-06-07T07:07:06.848Z,39904
2016-06-07T07:08:06.991Z,32576
2016-06-07T07:09:06.837Z,30912
2016-06-07T07:10:06.840Z,32160
2016-06-07T07:11:06.859Z,30240
2016-06-07T07:12:07.095Z,30848
2016-06-07T07:13:06.864Z,26944
2016-06-07T07:14:06.867Z,24800
2016-06-07T07:15:06.885Z,23904
2016-06-07T07:16:06.887Z,22176
2016-06-07T07:17:06.906Z,21632
2016-06-07T07:18:06.909Z,22816
2016-06-07T07:19:06.927Z,33952
2016-06-07T07:20:06.945Z,49600
2016-06-07T07:21:06.947Z,50432
2016-06-07T07:22:06.982Z,50912
2016-06-07T07:23:06.969Z,49312
2016-06-07T07:24:06.955Z,47648
2016-06-07T07:25:06.975Z,47040
2016-06-07T07:26:06.977Z,47552
2016-06-07T07:27:06.995Z,46496
2016-06-07T07:28:06.997Z,47872
2016-06-07T07:29:07.000Z,48352
2016-06-07T07:30:07.019Z,48896
2016-06-07T07:31:06.975Z,49504
2016-06-07T07:32:06.899Z,50560
2016-06-07T07:33:06.902Z,51520
2016-06-07T07:34:06.733Z,51360
2016-06-07T07:35:06.908Z,51392
2016-06-07T07:36:06.926Z,51424
2016-06-07T07:37:07.382Z,53216
2016-06-07T07:38:07.057Z,50528
2016-06-07T07:39:06.949Z,46240
2016-06-07T07:40:06.967Z,49536
2016-06-07T07:41:06.986Z,50816
2016-06-07T07:42:06.974Z,49472
2016-06-07T07:43:06.992Z,48672
2016-06-07T07:44:06.995Z,48768
2016-06-07T07:45:07.012Z,49728
2016-06-07T07:46:07.031Z,50144
2016-06-07T07:47:07.033Z,49344
2016-06-07T07:48:07.052Z,48576
2016-06-07T07:49:07.070Z,49312
2016-06-07T07:50:07.072Z,48160
2016-06-07T07:51:07.075Z,48224
2016-06-07T07:52:06.953Z,48128
2016-06-07T07:53:07.644Z,48064
2016-06-07T07:54:07.130Z,49024
2016-06-07T07:55:06.977Z,49568
2016-06-07T07:56:07.152Z,48256
2016-06-07T07:57:07.154Z,49280
2016-06-07T07:58:07.172Z,48768
2016-06-07T07:59:07.175Z,49792
2016-06-07T08:00:07.178Z,50304
2016-06-07T08:01:07.196Z,47744
2016-06-07T08:02:07.199Z,48544
2016-06-07T08:03:07.217Z,48192
2016-06-07T08:04:07.235Z,47136
2016-06-07T08:05:07.238Z,46816
2016-06-07T08:06:07.256Z,48480
2016-06-07T08:07:07.618Z,49504
2016-06-07T08:08:06.997Z,44832
2016-06-07T08:09:07.296Z,45088
2016-06-07T08:10:07.315Z,51072
2016-06-07T08:11:07.020Z,48128
2016-06-07T08:12:07.366Z,49600
2016-06-07T08:13:07.448Z,47424
2016-06-07T08:14:07.200Z,46784
2016-06-07T08:15:07.359Z,49248
2016-06-07T08:16:07.376Z,47328
2016-06-07T08:17:07.395Z,47168
2016-06-07T08:18:07.414Z,49472
2016-06-07T08:19:07.417Z,49888
2016-06-07T08:20:07.435Z,48192
2016-06-07T08:21:07.437Z,44896
2016-06-07T08:22:08.299Z,40512
2016-06-07T08:23:07.677Z,39168
2016-06-07T08:24:07.321Z,40736
2016-06-07T08:25:07.495Z,43872
2016-06-07T08:26:07.341Z,46784
2016-06-07T08:27:07.516Z,46080
2016-06-07T08:28:07.519Z,44288
2016-06-07T08:29:07.536Z,45216
2016-06-07T08:30:07.540Z,46752
2016-06-07T08:31:07.558Z,45632
2016-06-07T08:32:07.577Z,44960
2016-06-07T08:33:07.594Z,45184
2016-06-07T08:34:07.597Z,43712
2016-06-07T08:35:07.599Z,44224
2016-06-07T08:36:07.462Z,44928
2016-06-07T08:37:07.622Z,45344
2016-06-07T08:38:08.280Z,44384
2016-06-07T08:39:07.657Z,43488
2016-06-07T08:40:07.660Z,41984
2016-06-07T08:41:07.678Z,42144
2016-06-07T08:42:07.697Z,42880
2016-06-07T08:43:07.715Z,42848
2016-06-07T08:44:07.718Z,42272
2016-06-07T08:45:07.720Z,41440
2016-06-07T08:46:07.426Z,41536
2016-06-07T08:47:08.007Z,39360
2016-06-07T08:48:07.760Z,38432
2016-06-07T08:49:07.762Z,33472
2016-06-07T08:50:07.781Z,21216
2016-06-07T08:51:07.783Z,11456
2016-06-07T08:52:07.646Z,9788
2016-06-07T08:53:07.961Z,9704
2016-06-07T08:54:07.823Z,10508
2016-06-07T08:55:07.841Z,10940
2016-06-07T08:56:07.875Z,10428
2016-06-07T08:57:07.862Z,10776
2016-06-07T08:58:07.881Z,10880
2016-06-07T08:59:07.883Z,10304
2016-06-07T09:00:07.902Z,9684
2016-06-07T09:01:07.905Z,9148
2016-06-07T09:02:07.922Z,9116
2016-06-07T09:03:07.925Z,8680
2016-06-07T09:04:07.944Z,8328
2016-06-07T09:05:07.946Z,8076
2016-06-07T09:06:07.965Z,7708
2016-06-07T09:07:07.827Z,7416
2016-06-07T09:08:09.438Z,7128
2016-06-07T09:09:07.988Z,6864
2016-06-07T09:10:08.007Z,6800
2016-06-07T09:11:07.853Z,6792
2016-06-07T09:12:08.013Z,6848
2016-06-07T09:13:08.077Z,6752
2016-06-07T09:14:08.049Z,6568
2016-06-07T09:15:08.051Z,6312
2016-06-07T09:16:08.054Z,6128
2016-06-07T09:17:07.932Z,6064
2016-06-07T09:18:08.075Z,6052
2016-06-07T09:19:08.093Z,6072
2016-06-07T09:20:08.112Z,6096
2016-06-07T09:21:08.114Z,6152
2016-06-07T09:22:08.118Z,6224
2016-06-07T09:23:08.401Z,6264
2016-06-07T09:24:08.138Z,6280
2016-06-07T09:25:08.141Z,6308
2016-06-07T09:26:08.003Z,6276
2016-06-07T09:27:08.162Z,6244
2016-06-07T09:28:08.181Z,6168
2016-06-07T09:29:08.027Z,6116
2016-06-07T09:30:08.185Z,6052
2016-06-07T09:31:08.047Z,5956
2016-06-07T09:32:08.207Z,5856
2016-06-07T09:33:08.209Z,5768
2016-06-07T09:34:08.228Z,5676
2016-06-07T09:35:08.231Z,5724
2016-06-07T09:36:08.233Z,5740
2016-06-07T09:37:08.235Z,5728
2016-06-07T09:38:08.379Z,5696
2016-06-07T09:39:08.272Z,5700
2016-06-07T09:40:08.274Z,5708
2016-06-07T09:41:08.293Z,5732
2016-06-07T09:42:08.280Z,5744
2016-06-07T09:43:08.299Z,5804
2016-06-07T09:44:08.301Z,5852
2016-06-07T09:45:08.304Z,5824
2016-06-07T09:46:08.306Z,5732
2016-06-07T09:47:08.326Z,5632
2016-06-07T09:48:08.328Z,5592
2016-06-07T09:49:08.346Z,5632
2016-06-07T09:50:08.334Z,5680
2016-06-07T09:51:08.351Z,5692
2016-06-07T09:52:08.370Z,5888
2016-06-07T09:53:08.076Z,6004
2016-06-07T09:54:09.531Z,5996
2016-06-07T09:55:08.378Z,5920
2016-06-07T09:56:08.396Z,5876
2016-06-07T09:57:08.445Z,5904
2016-06-07T09:58:08.401Z,5904
2016-06-07T09:59:08.248Z,5876
2016-06-07T10:00:08.406Z,5880
2016-06-07T10:01:08.425Z,5920
2016-06-07T10:02:08.428Z,5992
2016-06-07T10:03:08.446Z,6024
2016-06-07T10:04:33.999Z,6060
2016-06-07T10:05:08.452Z,6044
2016-06-07T10:06:08.455Z,6032
2016-06-07T10:07:08.457Z,6412
2016-06-07T10:08:08.475Z,6516
2016-06-07T10:09:08.166Z,6640
2016-06-07T10:10:08.325Z,6768
2016-06-07T10:11:08.515Z,6864
2016-06-07T10:12:08.485Z,6768
2016-06-07T10:13:08.504Z,6600
2016-06-07T10:14:08.507Z,6532
2016-06-07T10:15:08.354Z,6548
2016-06-07T10:16:08.529Z,6572
2016-06-07T10:17:08.374Z,6664
2016-06-07T10:18:08.534Z,6652
2016-06-07T10:19:08.552Z,6736
2016-06-07T10:20:08.541Z,6432
2016-06-07T10:21:08.558Z,6272
2016-06-07T10:22:08.560Z,6356
2016-06-07T10:23:08.705Z,6272
2016-06-07T10:24:08.847Z,6024
2016-06-07T10:25:08.428Z,6000
2016-06-07T10:26:08.432Z,6020
2016-06-07T10:27:08.590Z,6116
2016-06-07T10:28:08.608Z,6176
2016-06-07T10:29:08.610Z,6192
2016-06-07T10:30:13.801Z,6352
2016-06-07T10:31:08.631Z,6524
2016-06-07T10:32:08.635Z,6748
2016-06-07T10:33:08.481Z,6900
2016-06-07T10:34:08.640Z,6948
2016-06-07T10:35:08.643Z,6936
2016-06-07T10:36:08.645Z,7188
2016-06-07T10:37:08.648Z,7436
2016-06-07T10:38:09.322Z,7640
2016-06-07T10:39:08.529Z,7616
2016-06-07T10:40:08.687Z,7368
2016-06-07T10:41:08.690Z,7244
2016-06-07T10:42:08.693Z,7272
2016-06-07T10:43:08.695Z,6888
2016-06-07T10:44:08.558Z,6308
2016-06-07T10:45:08.717Z,6092
2016-06-07T10:46:08.719Z,5944
2016-06-07T10:47:08.722Z,5644
2016-06-07T10:48:08.583Z,5512
2016-06-07T10:49:08.572Z,5388
2016-06-07T10:50:08.746Z,5256
2016-06-07T10:51:08.764Z,5268
2016-06-07T10:52:08.751Z,5400
2016-06-07T10:53:09.722Z,5624
2016-06-07T10:54:09.115Z,5796
2016-06-07T10:55:08.787Z,5928
2016-06-07T10:56:08.805Z,5960
2016-06-07T10:57:08.838Z,5788
2016-06-07T10:58:08.856Z,5700
2016-06-07T10:59:08.874Z,5880
2016-06-07T11:00:08.884Z,6148
2016-06-07T11:01:08.891Z,6484
2016-06-07T11:02:08.758Z,6744
2016-06-07T11:03:08.923Z,6860
2016-06-07T11:04:08.931Z,6816
2016-06-07T11:05:08.936Z,7016
2016-06-07T11:06:08.956Z,7476
2016-06-07T11:07:08.945Z,7460
2016-06-07T11:08:09.294Z,7172
2016-06-07T11:09:09.018Z,6836
2016-06-07T11:10:08.990Z,6936
2016-06-07T11:11:08.993Z,7032
2016-06-07T11:12:09.012Z,7080
2016-06-07T11:13:09.110Z,6660
2016-06-07T11:14:09.003Z,6496
2016-06-07T11:15:09.007Z,6484
2016-06-07T11:16:09.025Z,6416
2016-06-07T11:17:08.888Z,6540
2016-06-07T11:18:09.063Z,6632
2016-06-07T11:19:09.034Z,6664
2016-06-07T11:20:09.053Z,6692
2016-06-07T11:21:09.056Z,6636
2016-06-07T11:22:09.058Z,6596
2016-06-07T11:23:09.905Z,6588
2016-06-07T11:24:09.188Z,6812
2016-06-07T11:25:09.082Z,6452
2016-06-07T11:26:09.085Z,6444
2016-06-07T11:27:09.227Z,6400
2016-06-07T11:28:09.122Z,5980
2016-06-07T11:29:09.108Z,5776
2016-06-07T11:30:09.096Z,5896
2016-06-07T11:31:09.113Z,6048
2016-06-07T11:32:09.117Z,6304
2016-06-07T11:33:09.119Z,6660
2016-06-07T11:34:09.122Z,6700
2016-06-07T11:35:09.140Z,6748
2016-06-07T11:36:09.143Z,6992
2016-06-07T11:37:09.145Z,7004
2016-06-07T11:38:09.023Z,6892
2016-06-07T11:39:09.010Z,6748
2016-06-07T11:40:09.153Z,6744
2016-06-07T11:41:09.156Z,6924
2016-06-07T11:42:09.174Z,6928
2016-06-07T11:43:09.193Z,6812
2016-06-07T11:44:09.196Z,6732
2016-06-07T11:45:09.198Z,6684
2016-06-07T11:46:09.232Z,6528
2016-06-07T11:47:09.219Z,6352
2016-06-07T11:48:09.206Z,6424
2016-06-07T11:49:09.225Z,6532
2016-06-07T11:50:09.228Z,6552
2016-06-07T11:51:09.231Z,6464
2016-06-07T11:52:09.233Z,6468
2016-06-07T11:53:09.283Z,6488
2016-06-07T11:54:09.566Z,6544
2016-06-07T11:55:09.241Z,6628
2016-06-07T11:56:09.274Z,6584
2016-06-07T11:57:09.262Z,6404
2016-06-07T11:58:09.280Z,6260
2016-06-07T11:59:09.283Z,6240
2016-06-07T12:00:09.270Z,6116
2016-06-07T12:01:09.288Z,5812
2016-06-07T12:02:09.291Z,5380
2016-06-07T12:03:09.293Z,4844
2016-06-07T12:04:09.296Z,4572
2016-06-07T12:05:09.315Z,4452
2016-06-07T12:06:09.318Z,4372
2016-06-07T12:07:09.008Z,4444
2016-06-07T12:08:09.416Z,4556
2016-06-07T12:09:10.576Z,4600
2016-06-07T12:10:09.187Z,4572
2016-06-07T12:11:09.190Z,4500
2016-06-07T12:12:09.348Z,4456
2016-06-07T12:13:09.351Z,4480
2016-06-07T12:14:09.354Z,4556
2016-06-07T12:15:09.357Z,4648
2016-06-07T12:16:09.391Z,4676
2016-06-07T12:17:09.378Z,4560
2016-06-07T12:18:09.381Z,4380
2016-06-07T12:19:09.399Z,4344
2016-06-07T12:20:09.386Z,4340
2016-06-07T12:21:09.389Z,4312
2016-06-07T12:22:09.407Z,4392
2016-06-07T12:23:09.848Z,4392
2016-06-07T12:24:09.272Z,4372
2016-06-07T12:25:09.431Z,4308
2016-06-07T12:26:09.434Z,4228
2016-06-07T12:27:09.436Z,4112
2016-06-07T12:28:09.298Z,4012
2016-06-07T12:29:09.457Z,3956
2016-06-07T12:30:09.460Z,3880
2016-06-07T12:31:09.463Z,3796
2016-06-07T12:32:09.466Z,3800
2016-06-07T12:33:09.468Z,3836
2016-06-07T12:34:09.486Z,3852
2016-06-07T12:35:09.332Z,3892
2016-06-07T12:36:09.491Z,3948
2016-06-07T12:37:09.494Z,3976
2016-06-07T12:38:09.496Z,3960
2016-06-07T12:39:10.140Z,3908
2016-06-07T12:40:09.502Z,3852
2016-06-07T12:41:09.521Z,3808
2016-06-07T12:42:09.524Z,3800
2016-06-07T12:43:09.526Z,3832
2016-06-07T12:44:09.529Z,3876
2016-06-07T12:45:09.547Z,3960
2016-06-07T12:46:09.534Z,4032
2016-06-07T12:47:09.553Z,4032
2016-06-07T12:48:09.556Z,4000
2016-06-07T12:49:09.559Z,3976
2016-06-07T12:50:09.576Z,3968
2016-06-07T12:51:09.564Z,3944
2016-06-07T12:52:09.567Z,3984
2016-06-07T12:53:09.584Z,4032
2016-06-07T12:54:11.868Z,4116
2016-06-07T12:55:09.589Z,4216
2016-06-07T12:56:09.608Z,4304
2016-06-07T12:57:09.611Z,4352
2016-06-07T12:58:09.598Z,4308
2016-06-07T12:59:09.460Z,4196
2016-06-07T13:00:09.634Z,4100
2016-06-07T13:01:09.621Z,4072
2016-06-07T13:02:09.624Z,4080
2016-06-07T13:03:09.627Z,4072
2016-06-07T13:04:09.489Z,4104
2016-06-07T13:05:09.664Z,4152
2016-06-07T13:06:09.650Z,4240
2016-06-07T13:07:09.652Z,4248
2016-06-07T13:08:09.672Z,4264
2016-06-07T13:09:09.533Z,4332
2016-06-07T13:10:09.677Z,4408
2016-06-07T13:11:09.663Z,4548
2016-06-07T13:12:09.682Z,4548
2016-06-07T13:13:09.685Z,4444
2016-06-07T13:14:09.703Z,4356
2016-06-07T13:15:09.690Z,4332
2016-06-07T13:16:09.693Z,4340
2016-06-07T13:17:09.711Z,4340
2016-06-07T13:18:09.714Z,4400
2016-06-07T13:19:09.717Z,4496
2016-06-07T13:20:09.720Z,4620
2016-06-07T13:21:09.722Z,4696
2016-06-07T13:22:09.740Z,4720
2016-06-07T13:23:09.728Z,4748
2016-06-07T13:24:09.745Z,4844
2016-06-07T13:25:09.764Z,4960
2016-06-07T13:26:09.750Z,5096
2016-06-07T13:27:09.754Z,5244
2016-06-07T13:28:09.757Z,5376
2016-06-07T13:29:09.775Z,5528
2016-06-07T13:30:09.794Z,5676